Flight Track Log - Related Links

Times and Time Zones

All times are in EDT time to prevent confusion due to time zone crossing. See the UAL3767 flight status page for this flight to view local times or setup timezone preferences in your user account.

Time Position Orientation Groundspeed Altitude Reporting Facility
EDT Latitude Longitude Course Direction KTS MPH feet Rate Location/Type
Tue 06:13:32 AM 42.2314 -83.3342 292° West 155 178 1,400  Level Cleveland Center
Tue 06:14:20 AM 42.2708 -83.3331 North 209 241 2,800 1,982 Climbing Cleveland Center
Tue 06:15:21 AM 42.3419 -83.3333 360° North 265 305 5,000 2,452 Climbing Cleveland Center
Tue 06:16:00 AM 42.2896 -83.6709 283° West  Level FlightAware Approximate
Tue 06:16:15 AM 42.3861 -83.3944 314° West 293 337 7,500  Level Cleveland Center
Tue 06:17:00 AM 42.3098 -83.7821 285° West  Level FlightAware Approximate
Tue 06:17:16 AM 42.3939 -83.5044 276° West 298 343 10,300  Level Cleveland Center
Tue 06:18:00 AM 42.3386 -83.8897 292° West  Level FlightAware Approximate
Tue 06:18:43 AM 42.4042 -83.6708 275° West 311 358 13,600  Level Cleveland Center
Tue 06:19:43 AM 42.4089 -83.8003 273° West 331 381 15,300 1,900 Climbing Cleveland Center
Tue 06:20:43 AM 42.4153 -83.9386 274° West 345 397 17,400 2,100 Climbing Cleveland Center
Tue 06:21:43 AM 42.4217 -84.0767 274° West 361 415 19,500 1,850 Climbing Cleveland Center
Tue 06:22:43 AM 42.4278 -84.2178 273° West 371 427 21,100 1,700 Climbing Cleveland Center
Tue 06:23:43 AM 42.4297 -84.3531 271° West 389 448 22,900 1,570 Climbing Cleveland Center
Tue 06:24:30 AM 42.4356 -84.4547 274° West 388 447 23,900 611 Climbing Chicago Center
Tue 06:25:31 AM 42.4392 -84.6083 272° West 403 464 24,000 50 Climbing Chicago Center
Tue 06:26:31 AM 42.4428 -84.7675 272° West 418 481 24,000  Level Chicago Center
Tue 06:27:32 AM 42.4461 -84.9183 272° West 409 471 24,000  Level Chicago Center
Tue 06:28:32 AM 42.4500 -85.0578 272° West 381 438 24,000  Level Chicago Center
Tue 06:29:33 AM 42.4531 -85.2181 272° West 360 414 24,000  Level Chicago Center
Tue 06:30:34 AM 42.4550 -85.3533 271° West 359 413 24,000  Level Chicago Center
Tue 06:31:34 AM 42.4578 -85.4936 272° West 367 422 24,000  Level Chicago Center
Tue 06:32:35 AM 42.4592 -85.6372 271° West 377 434 24,000 -198 Level Chicago Center
Tue 06:33:35 AM 42.4614 -85.7831 271° West 387 445 23,600 -992 Descending Chicago Center
Tue 06:34:36 AM 42.4636 -85.9269 271° West 384 442 22,000 -1,525 Descending Chicago Center
Tue 06:35:37 AM 42.4653 -86.0644 271° West 370 426 20,500 -1,488 Descending Chicago Center
Tue 06:36:37 AM 42.4658 -86.1997 270° West 361 415 19,000 -1,438 Descending Chicago Center
Tue 06:37:38 AM 42.4639 -86.3389 269° West 366 421 17,600 -1,426 Descending Chicago Center
Tue 06:38:39 AM 42.4625 -86.4764 269° West 364 419 16,100 -1,488 Descending Chicago Center
Tue 06:39:39 AM 42.4606 -86.6089 269° West 355 409 14,600 -1,488 Descending Chicago Center
Tue 06:40:40 AM 42.4606 -86.7403 270° West 349 402 13,100 -1,488 Descending Chicago Center
Tue 06:41:40 AM 42.4594 -86.8708 269° West 348 400 11,600 -1,488 Descending Chicago Center
Tue 06:42:41 AM 42.4578 -87.0067 269° West 359 413 10,100 -787 Descending Chicago Center
Tue 06:43:42 AM 42.4469 -87.1389 264° West 359 413 10,000 -50 Descending Chicago Center
Tue 06:44:42 AM 42.4117 -87.2642 249° West 360 414 10,000  Level Chicago Center
Tue 06:45:43 AM 42.3778 -87.3958 251° West 358 412 10,000  Level Chicago Center
Tue 06:46:44 AM 42.3417 -87.5181 248° West 355 409 10,000  Level Chicago Center
Tue 06:47:44 AM 42.2703 -87.6083 223° Southwest 353 406 10,000 -99 Level Chicago Center
Tue 06:48:45 AM 42.1972 -87.6842 218° Southwest 334 384 9,800 -836 Descending Chicago Center
Tue 06:49:46 AM 42.1319 -87.7525 218° Southwest 304 350 8,300 -1,388 Descending Chicago Center
Tue 06:50:46 AM 42.0903 -87.8494 240° Southwest 307 353 7,000 -678 Descending Chicago Center
Tue 06:51:41 AM 42.0500 -87.9667 245° Southwest 319 367 7,000 -155 Level Chicago TRACON
Tue 06:52:42 AM 42.0500 -88.0667 270° West 294 338 6,700 -942 Descending Chicago TRACON
Tue 06:53:42 AM 42.0500 -88.1833 270° West 290 334 5,100 -850 Descending Chicago TRACON
Tue 06:54:42 AM 42.0500 -88.2667 270° West 231 266 5,000 -50 Descending Chicago TRACON
Tue 06:55:42 AM 42.0333 -88.3333 251° West 220 253 5,000  Level Chicago TRACON
Tue 06:56:51 AM 41.9692 -88.3147 168° South 207 238 5,000  Level Chicago Center
Tue 06:57:51 AM 41.9653 -88.2428 94° East 201 231 5,000 -298 Level Chicago Center
Tue 06:58:52 AM 41.9689 -88.1803 86° East 173 199 4,400 -836 Descending Chicago Center
Tue 06:59:53 AM 41.9686 -88.1181 90° East 168 193 3,300 -1,082 Descending Chicago Center

Login

Don't have an account? Register now (free) for customized features, flight alerts, and more!